Time,TemperatureF,DewpointF,PressureIn,WindDirection,WindDirectionDegrees,WindSpeedMPH,WindSpeedGustMPH,Humidity,HourlyPrecipIn,Conditions,Clouds,dailyrainin,SoftwareType,DateUTC
2013-01-30 00:11:00,46.8,43.7,30.03,North,0,0.0,-999.0,89,-99.99,,,0.00,Acu-Link.com,2013-01-30 08:11:00,
2013-01-30 00:26:00,46.4,43.6,30.03,North,0,0.0,-999.0,90,-99.99,,,0.00,Acu-Link.com,2013-01-30 08:26:00,
2013-01-30 00:41:00,46.4,43.6,30.04,North,0,0.0,-999.0,90,-99.99,,,0.00,Acu-Link.com,2013-01-30 08:41:00,
2013-01-30 00:56:00,46.0,43.2,30.03,North,0,0.0,-999.0,90,-99.99,,,0.00,Acu-Link.com,2013-01-30 08:56:00,
2013-01-30 01:15:00,46.0,43.2,30.03,North,0,0.0,-999.0,90,-99.99,,,0.00,Acu-Link.com,2013-01-30 09:15:00,
2013-01-30 01:30:00,45.3,42.3,30.03,North,0,0.0,-999.0,89,-99.99,,,0.00,Acu-Link.com,2013-01-30 09:30:00,
2013-01-30 01:45:00,45.5,43.0,30.03,North,0,0.0,-999.0,91,-99.99,,,0.00,Acu-Link.com,2013-01-30 09:45:00,
2013-01-30 02:00:00,45.9,43.1,30.02,North,0,0.0,-999.0,90,-99.99,,,0.00,Acu-Link.com,2013-01-30 10:00:00,
2013-01-30 02:16:00,46.4,43.3,30.03,North,0,0.0,-999.0,89,-99.99,,,0.00,Acu-Link.com,2013-01-30 10:16:00,
2013-01-30 02:31:00,46.4,43.0,30.02,North,0,0.0,-999.0,88,-99.99,,,0.00,Acu-Link.com,2013-01-30 10:31:00,
2013-01-30 02:46:00,46.6,42.9,30.02,North,0,1.1,-999.0,87,-99.99,,,0.00,Acu-Link.com,2013-01-30 10:46:00,
2013-01-30 03:01:00,46.4,42.7,30.02,North,0,0.0,-999.0,87,-99.99,,,0.00,Acu-Link.com,2013-01-30 11:01:00,
2013-01-30 03:16:00,46.0,42.6,30.02,North,0,0.0,-999.0,88,-99.99,,,0.00,Acu-Link.com,2013-01-30 11:16:00,
2013-01-30 03:31:00,45.3,42.0,30.02,North,0,0.0,-999.0,88,-99.99,,,0.00,Acu-Link.com,2013-01-30 11:31:00,
2013-01-30 03:46:00,45.0,42.0,30.01,North,0,0.0,-999.0,89,-99.99,,,0.00,Acu-Link.com,2013-01-30 11:46:00,
2013-01-30 04:01:00,45.5,42.2,30.01,North,0,0.0,-999.0,88,-99.99,,,0.00,Acu-Link.com,2013-01-30 12:01:00,
2013-01-30 04:16:00,45.5,42.2,30.01,North,0,1.1,-999.0,88,-99.99,,,0.00,Acu-Link.com,2013-01-30 12:16:00,
2013-01-30 04:32:00,45.9,42.3,30.01,North,0,0.0,-999.0,87,-99.99,,,0.00,Acu-Link.com,2013-01-30 12:32:00,
2013-01-30 04:47:00,45.5,42.2,30.01,North,0,0.0,-999.0,88,-99.99,,,0.00,Acu-Link.com,2013-01-30 12:47:00,
2013-01-30 05:02:00,46.0,42.1,30.01,North,0,0.0,-999.0,86,-99.99,,,0.00,Acu-Link.com,2013-01-30 13:02:00,
2013-01-30 05:17:00,46.0,41.4,30.01,North,0,0.0,-999.0,84,-99.99,,,0.00,Acu-Link.com,2013-01-30 13:17:00,
2013-01-30 05:32:00,45.5,41.6,30.02,North,0,0.0,-999.0,86,-99.99,,,0.00,Acu-Link.com,2013-01-30 13:32:00,
2013-01-30 05:47:00,45.5,41.9,30.03,North,0,0.0,-999.0,87,-99.99,,,0.00,Acu-Link.com,2013-01-30 13:47:00,
2013-01-30 06:02:00,45.5,41.6,30.02,North,0,0.0,-999.0,86,-99.99,,,0.00,Acu-Link.com,2013-01-30 14:02:00,
2013-01-30 06:17:00,45.9,41.6,30.03,North,0,0.0,-999.0,85,-99.99,,,0.00,Acu-Link.com,2013-01-30 14:17:00,
2013-01-30 06:32:00,45.9,41.6,30.03,North,0,0.0,-999.0,85,-99.99,,,0.00,Acu-Link.com,2013-01-30 14:32:00,
2013-01-30 06:48:00,45.5,41.9,30.04,North,0,0.0,-999.0,87,-99.99,,,0.00,Acu-Link.com,2013-01-30 14:48:00,
2013-01-30 07:03:00,45.3,42.0,30.04,North,0,0.0,-999.0,88,-99.99,,,0.00,Acu-Link.com,2013-01-30 15:03:00,
2013-01-30 07:18:00,45.0,42.0,30.05,North,0,0.0,-999.0,89,-99.99,,,0.00,Acu-Link.com,2013-01-30 15:18:00,
2013-01-30 07:33:00,45.3,42.0,30.05,North,0,0.0,-999.0,88,-99.99,,,0.00,Acu-Link.com,2013-01-30 15:33:00,
2013-01-30 07:48:00,45.7,42.6,30.05,North,0,0.0,-999.0,89,-99.99,,,0.00,Acu-Link.com,2013-01-30 15:48:00,
2013-01-30 08:03:00,46.0,42.9,30.05,North,0,0.0,-999.0,89,-99.99,,,0.00,Acu-Link.com,2013-01-30 16:03:00,
2013-01-30 08:18:00,54.7,45.1,30.05,North,0,0.0,-999.0,70,-99.99,,,0.00,Acu-Link.com,2013-01-30 16:18:00,
2013-01-30 08:33:00,53.2,44.4,30.06,North,0,0.0,-999.0,72,-99.99,,,0.00,Acu-Link.com,2013-01-30 16:33:00,
2013-01-30 08:48:00,53.8,44.2,30.06,North,0,0.0,-999.0,70,-99.99,,,0.00,Acu-Link.com,2013-01-30 16:48:00,
2013-01-30 09:03:00,54.1,46.0,30.06,North,0,1.1,-999.0,74,-99.99,,,0.00,Acu-Link.com,2013-01-30 17:03:00,
2013-01-30 09:19:00,54.1,45.3,30.07,North,0,1.1,-999.0,72,-99.99,,,0.00,Acu-Link.com,2013-01-30 17:19:00,
2013-01-30 09:34:00,54.3,46.2,30.07,North,0,2.2,-999.0,74,-99.99,,,0.00,Acu-Link.com,2013-01-30 17:34:00,
2013-01-30 09:49:00,55.0,45.8,30.07,North,0,2.7,-999.0,71,-99.99,,,0.00,Acu-Link.com,2013-01-30 17:49:00,
2013-01-30 10:04:00,55.4,45.8,30.07,North,0,1.7,-999.0,70,-99.99,,,0.00,Acu-Link.com,2013-01-30 18:04:00,
2013-01-30 10:19:00,58.1,45.6,30.07,North,0,2.7,-999.0,63,-99.99,,,0.00,Acu-Link.com,2013-01-30 18:19:00,
2013-01-30 10:34:00,58.8,45.4,30.08,North,0,4.2,-999.0,61,-99.99,,,0.00,Acu-Link.com,2013-01-30 18:34:00,
2013-01-30 10:50:00,59.9,45.5,30.08,North,0,2.7,-999.0,59,-99.99,,,0.00,Acu-Link.com,2013-01-30 18:50:00,
2013-01-30 11:05:00,58.8,42.7,30.07,North,0,2.2,-999.0,55,-99.99,,,0.00,Acu-Link.com,2013-01-30 19:05:00,
2013-01-30 11:20:00,59.7,41.5,30.07,North,0,0.0,-999.0,51,-99.99,,,0.00,Acu-Link.com,2013-01-30 19:20:00,
2013-01-30 11:35:00,61.3,42.0,30.07,North,0,1.1,-999.0,49,-99.99,,,0.00,Acu-Link.com,2013-01-30 19:35:00,
2013-01-30 11:50:00,61.0,40.6,30.06,North,0,2.7,-999.0,47,-99.99,,,0.00,Acu-Link.com,2013-01-30 19:50:00,
2013-01-30 12:05:00,63.3,41.6,30.05,North,0,2.7,-999.0,45,-99.99,,,0.00,Acu-Link.com,2013-01-30 20:05:00,
2013-01-30 12:20:00,61.5,40.5,30.04,North,0,2.7,-999.0,46,-99.99,,,0.00,Acu-Link.com,2013-01-30 20:20:00,
2013-01-30 12:35:00,62.6,41.5,30.04,North,0,2.7,-999.0,46,-99.99,,,0.00,Acu-Link.com,2013-01-30 20:35:00,
2013-01-30 12:50:00,62.4,40.8,30.04,North,0,2.2,-999.0,45,-99.99,,,0.00,Acu-Link.com,2013-01-30 20:50:00,
2013-01-30 13:06:00,62.8,41.1,30.03,North,0,1.7,-999.0,45,-99.99,,,0.00,Acu-Link.com,2013-01-30 21:06:00,
2013-01-30 13:21:00,63.9,48.8,30.03,North,0,1.7,-999.0,58,-99.99,,,0.00,Acu-Link.com,2013-01-30 21:21:00,
2013-01-30 13:36:00,62.2,48.1,30.03,North,0,2.2,-999.0,60,-99.99,,,0.00,Acu-Link.com,2013-01-30 21:36:00,
2013-01-30 13:51:00,63.0,48.4,30.01,North,0,1.1,-999.0,59,-99.99,,,0.00,Acu-Link.com,2013-01-30 21:51:00,
2013-01-30 14:06:00,62.6,48.1,30.01,North,0,0.0,-999.0,59,-99.99,,,0.00,Acu-Link.com,2013-01-30 22:06:00,
2013-01-30 14:21:00,63.0,48.4,30.01,North,0,1.7,-999.0,59,-99.99,,,0.00,Acu-Link.com,2013-01-30 22:21:00,
2013-01-30 14:36:00,63.1,47.6,30.01,North,0,1.7,-999.0,57,-99.99,,,0.00,Acu-Link.com,2013-01-30 22:36:00,
2013-01-30 14:51:00,62.1,47.6,30.00,North,0,1.7,-999.0,59,-99.99,,,0.00,Acu-Link.com,2013-01-30 22:51:00,
2013-01-30 15:06:00,61.2,47.2,30.00,North,0,0.0,-999.0,60,-99.99,,,0.00,Acu-Link.com,2013-01-30 23:06:00,
2013-01-30 15:22:00,60.6,46.6,30.00,North,0,1.1,-999.0,60,-99.99,,,0.00,Acu-Link.com,2013-01-30 23:22:00,
2013-01-30 15:37:00,59.7,45.8,30.00,North,0,1.7,-999.0,60,-99.99,,,0.00,Acu-Link.com,2013-01-30 23:37:00,
2013-01-30 15:52:00,59.0,46.0,30.00,North,0,2.7,-999.0,62,-99.99,,,0.00,Acu-Link.com,2013-01-30 23:52:00,
2013-01-30 16:07:00,57.6,45.5,30.00,North,0,2.7,-999.0,64,-99.99,,,0.00,Acu-Link.com,2013-01-31 00:07:00,
2013-01-30 16:22:00,56.7,45.5,30.00,North,0,2.7,-999.0,66,-99.99,,,0.00,Acu-Link.com,2013-01-31 00:22:00,
2013-01-30 16:37:00,55.4,45.4,30.00,North,0,2.2,-999.0,69,-99.99,,,0.00,Acu-Link.com,2013-01-31 00:37:00,
2013-01-30 16:52:00,54.5,44.9,30.01,North,0,2.2,-999.0,70,-99.99,,,0.00,Acu-Link.com,2013-01-31 00:52:00,
2013-01-30 17:08:00,54.1,44.9,30.00,North,0,2.7,-999.0,71,-99.99,,,0.00,Acu-Link.com,2013-01-31 01:08:00,
2013-01-30 17:23:00,53.4,44.6,30.00,North,0,2.2,-999.0,72,-99.99,,,0.00,Acu-Link.com,2013-01-31 01:23:00,
2013-01-30 17:38:00,53.2,44.0,30.00,North,0,2.2,-999.0,71,-99.99,,,0.00,Acu-Link.com,2013-01-31 01:38:00,
2013-01-30 17:53:00,52.9,43.0,29.99,North,0,2.7,-999.0,69,-99.99,,,0.00,Acu-Link.com,2013-01-31 01:53:00,
2013-01-30 18:08:00,52.3,42.8,30.00,North,0,2.2,-999.0,70,-99.99,,,0.00,Acu-Link.com,2013-01-31 02:08:00,
2013-01-30 18:23:00,52.2,42.3,30.00,North,0,2.2,-999.0,69,-99.99,,,0.00,Acu-Link.com,2013-01-31 02:23:00,
2013-01-30 18:38:00,52.3,42.1,30.00,North,0,2.7,-999.0,68,-99.99,,,0.00,Acu-Link.com,2013-01-31 02:38:00,
2013-01-30 18:53:00,52.2,41.6,30.00,North,0,2.2,-999.0,67,-99.99,,,0.00,Acu-Link.com,2013-01-31 02:53:00,
2013-01-30 19:08:00,51.8,41.2,30.00,North,0,1.7,-999.0,67,-99.99,,,0.00,Acu-Link.com,2013-01-31 03:08:00,
2013-01-30 19:24:00,51.1,40.9,30.00,North,0,1.1,-999.0,68,-99.99,,,0.00,Acu-Link.com,2013-01-31 03:24:00,
2013-01-30 19:39:00,51.3,41.1,30.00,North,0,0.0,-999.0,68,-99.99,,,0.00,Acu-Link.com,2013-01-31 03:39:00,
2013-01-30 19:54:00,50.5,39.6,30.00,North,0,0.0,-999.0,66,-99.99,,,0.00,Acu-Link.com,2013-01-31 03:54:00,
2013-01-30 20:09:00,50.7,40.5,30.00,North,0,0.0,-999.0,68,-99.99,,,0.00,Acu-Link.com,2013-01-31 04:09:00,
2013-01-30 20:24:00,50.4,39.9,30.00,North,0,0.0,-999.0,67,-99.99,,,0.00,Acu-Link.com,2013-01-31 04:24:00,
2013-01-30 20:39:00,52.5,40.3,30.00,North,0,0.0,-999.0,63,-99.99,,,0.00,Acu-Link.com,2013-01-31 04:39:00,
2013-01-30 20:54:00,51.4,40.0,30.00,North,0,0.0,-999.0,65,-99.99,,,0.00,Acu-Link.com,2013-01-31 04:54:00,
2013-01-30 21:09:00,51.6,41.8,30.01,North,0,0.0,-999.0,69,-99.99,,,0.00,Acu-Link.com,2013-01-31 05:09:00,
2013-01-30 21:25:00,51.6,42.1,30.00,North,0,0.0,-999.0,70,-99.99,,,0.00,Acu-Link.com,2013-01-31 05:25:00,
2013-01-30 21:40:00,51.6,42.9,30.00,North,0,0.0,-999.0,72,-99.99,,,0.00,Acu-Link.com,2013-01-31 05:40:00,
2013-01-30 21:55:00,51.4,42.7,30.00,North,0,0.0,-999.0,72,-99.99,,,0.00,Acu-Link.com,2013-01-31 05:55:00,
2013-01-30 22:10:00,51.1,42.4,30.00,North,0,0.0,-999.0,72,-99.99,,,0.00,Acu-Link.com,2013-01-31 06:10:00,
2013-01-30 22:25:00,50.9,41.8,29.99,North,0,0.0,-999.0,71,-99.99,,,0.00,Acu-Link.com,2013-01-31 06:25:00,
2013-01-30 22:40:00,50.7,41.6,30.00,North,0,0.0,-999.0,71,-99.99,,,0.00,Acu-Link.com,2013-01-31 06:40:00,
2013-01-30 22:55:00,50.9,42.2,30.00,North,0,0.0,-999.0,72,-99.99,,,0.00,Acu-Link.com,2013-01-31 06:55:00,
2013-01-30 23:10:00,51.1,42.4,30.00,North,0,0.0,-999.0,72,-99.99,,,0.00,Acu-Link.com,2013-01-31 07:10:00,
2013-01-30 23:26:00,51.1,42.4,30.00,North,0,0.0,-999.0,72,-99.99,,,0.00,Acu-Link.com,2013-01-31 07:26:00,
2013-01-30 23:41:00,51.3,42.6,30.01,North,0,0.0,-999.0,72,-99.99,,,0.00,Acu-Link.com,2013-01-31 07:41:00,
2013-01-30 23:56:00,50.9,42.9,30.01,North,0,1.7,-999.0,74,-99.99,,,0.00,Acu-Link.com,2013-01-31 07:56:00,